Time;durP1;ratioP1;P1;durP2;ratioP2;P2;SDS_P1;SDS_P2;PMS_P1;PMS_P2;Temp;Humidity;BMP_temperature;BMP_pressure;BME280_temperature;BME280_humidity;BME280_pressure;Samples;Min_cycle;Max_cycle;Signal;HPM_P1;HPM_P2
2022/07/22 00:02:18;;;;;;;16.52;14.32;;;20.70;99.90;;;;;;5032007;28;20079;-77
2022/07/22 00:04:43;;;;;;;16.92;14.38;;;20.70;99.90;;;;;;5048950;28;20493;-76
2022/07/22 00:07:09;;;;;;;16.33;13.50;;;20.80;99.90;;;;;;5050152;28;20381;-77
2022/07/22 00:09:35;;;;;;;16.55;13.65;;;20.80;99.90;;;;;;5051350;28;20040;-78
2022/07/22 00:12:01;;;;;;;16.08;13.80;;;20.80;99.90;;;;;;5050887;28;20021;-76
2022/07/22 00:14:26;;;;;;;17.70;13.00;;;20.60;99.90;;;;;;5049550;28;20025;-77
2022/07/22 00:16:52;;;;;;;15.38;11.80;;;20.60;99.90;;;;;;5049404;28;20029;-77
2022/07/22 00:19:17;;;;;;;20.38;11.82;;;20.40;99.90;;;;;;5033407;28;20121;-76
2022/07/22 00:21:43;;;;;;;14.93;9.65;;;20.30;99.90;;;;;;5053446;28;20032;-75
2022/07/22 00:24:09;;;;;;;15.57;9.98;;;20.20;99.90;;;;;;5019272;28;20025;-77
2022/07/22 00:26:35;;;;;;;14.90;9.00;;;20.10;99.90;;;;;;5053304;28;20029;-78
2022/07/22 00:29:00;;;;;;;14.00;8.98;;;20.10;99.90;;;;;;5018544;28;20124;-77
2022/07/22 00:31:26;;;;;;;11.50;8.77;;;20.00;99.90;;;;;;5052086;28;20075;-77
2022/07/22 00:33:52;;;;;;;14.65;9.25;;;20.00;99.90;;;;;;5035264;28;20050;-78
2022/07/22 00:36:18;;;;;;;14.77;7.95;;;20.00;99.90;;;;;;5036354;28;20036;-78
2022/07/22 00:38:44;;;;;;;10.32;7.20;;;19.90;99.90;;;;;;5054901;28;20443;-78
2022/07/22 00:41:09;;;;;;;12.85;6.82;;;19.90;99.90;;;;;;5052951;28;20032;-78
2022/07/22 00:43:58;;;;;;;10.55;6.68;;;19.80;99.90;;;;;;5034448;28;20455;-78
2022/07/22 00:46:24;;;;;;;10.55;5.68;;;19.70;99.90;;;;;;5033938;28;20028;-78
2022/07/22 00:48:50;;;;;;;10.35;5.60;;;19.70;99.90;;;;;;5053183;28;20025;-77
2022/07/22 00:51:17;;;;;;;8.38;4.32;;;19.60;99.90;;;;;;5053088;28;20544;-77
2022/07/22 00:53:44;;;;;;;4.22;3.53;;;19.50;99.90;;;;;;5048846;28;20100;-77
2022/07/22 00:56:10;;;;;;;5.35;4.10;;;19.40;99.90;;;;;;5035451;28;20017;-78
2022/07/22 00:58:36;;;;;;;3.92;3.53;;;19.40;99.90;;;;;;5052418;28;20078;-78
2022/07/22 01:01:02;;;;;;;4.40;3.17;;;19.40;99.90;;;;;;5034849;28;20025;-79
2022/07/22 01:03:28;;;;;;;4.35;2.75;;;19.30;99.90;;;;;;5052518;28;20112;-77
2022/07/22 01:05:54;;;;;;;4.45;3.03;;;19.30;99.90;;;;;;5035415;28;20100;-77
2022/07/22 01:08:19;;;;;;;3.67;2.05;;;19.20;99.90;;;;;;5051055;28;20420;-77
2022/07/22 01:10:45;;;;;;;4.50;1.65;;;19.10;99.90;;;;;;5051279;28;20033;-77
2022/07/22 01:13:11;;;;;;;3.20;1.83;;;19.00;99.90;;;;;;5034836;28;20025;-77
2022/07/22 01:15:37;;;;;;;3.40;1.90;;;18.90;99.90;;;;;;5034266;28;20021;-77
2022/07/22 01:18:03;;;;;;;4.03;2.08;;;18.90;99.90;;;;;;5052291;28;20036;-78
2022/07/22 01:20:29;;;;;;;2.38;2.17;;;18.90;99.90;;;;;;5034231;28;20497;-77
2022/07/22 01:22:55;;;;;;;4.20;2.33;;;19.00;99.90;;;;;;5034258;28;20021;-77
2022/07/22 01:25:21;;;;;;;7.78;2.50;;;19.00;99.90;;;;;;5050824;28;20029;-77
2022/07/22 01:27:46;;;;;;;5.43;2.50;;;18.90;99.90;;;;;;5052552;28;20048;-77
2022/07/22 01:30:12;;;;;;;5.78;3.33;;;18.90;99.90;;;;;;5032020;28;20489;-77
2022/07/22 01:32:38;;;;;;;4.85;3.38;;;18.80;99.90;;;;;;5034816;28;20374;-77
2022/07/22 01:35:04;;;;;;;5.90;3.80;;;18.70;99.90;;;;;;5017530;28;20040;-78
2022/07/22 01:37:33;;;;;;;6.57;4.43;;;18.70;99.90;;;;;;5052997;28;20105;-78
2022/07/22 01:39:59;;;;;;;6.18;4.00;;;18.60;99.90;;;;;;5034120;28;20028;-76
2022/07/22 01:42:25;;;;;;;6.15;4.07;;;18.60;99.90;;;;;;5035601;28;20028;-77
2022/07/22 01:44:51;;;;;;;6.13;4.55;;;18.60;99.90;;;;;;5051642;28;20059;-77
2022/07/22 01:47:17;;;;;;;6.85;4.85;;;18.60;99.90;;;;;;5033584;28;20513;-77
2022/07/22 01:49:42;;;;;;;7.82;4.82;;;18.60;99.90;;;;;;5051477;28;20098;-77
2022/07/22 01:52:08;;;;;;;9.32;5.15;;;18.60;99.90;;;;;;5034348;28;20025;-79
2022/07/22 01:54:34;;;;;;;11.80;5.10;;;18.60;99.90;;;;;;5050911;28;20331;-75
2022/07/22 01:57:00;;;;;;;10.68;4.90;;;18.60;99.90;;;;;;5018433;28;20124;-77
2022/07/22 01:59:26;;;;;;;9.73;5.10;;;18.60;99.90;;;;;;5032336;28;20033;-77
2022/07/22 02:01:52;;;;;;;10.38;5.18;;;18.60;99.90;;;;;;5033867;28;20745;-77
2022/07/22 02:04:18;;;;;;;12.95;4.70;;;18.60;99.90;;;;;;5032405;28;20025;-77
2022/07/22 02:06:43;;;;;;;11.25;5.00;;;18.50;99.90;;;;;;5050019;28;20027;-77
2022/07/22 02:09:09;;;;;;;10.35;4.40;;;18.50;99.90;;;;;;5033330;28;20024;-78
2022/07/22 02:11:35;;;;;;;10.70;4.93;;;18.50;99.90;;;;;;5033292;28;20230;-78
2022/07/22 02:14:01;;;;;;;13.50;4.38;;;18.40;99.90;;;;;;5032314;28;20458;-77
2022/07/22 02:16:27;;;;;;;8.27;3.88;;;18.40;99.90;;;;;;5051094;28;20248;-78
2022/07/22 02:18:53;;;;;;;13.20;3.97;;;18.40;99.90;;;;;;5051171;28;20029;-77
2022/07/22 02:21:19;;;;;;;8.63;3.30;;;18.40;99.90;;;;;;5050701;28;20123;-77
2022/07/22 02:23:45;;;;;;;9.80;3.45;;;18.40;99.90;;;;;;5050767;28;20119;-75
2022/07/22 02:26:10;;;;;;;11.15;3.78;;;18.30;99.90;;;;;;5050949;28;20291;-75
2022/07/22 02:28:36;;;;;;;7.85;3.03;;;18.30;99.90;;;;;;5033055;28;20025;-76
2022/07/22 02:31:02;;;;;;;10.18;3.97;;;18.30;99.90;;;;;;5032840;28;20440;-76
2022/07/22 02:33:29;;;;;;;6.93;3.20;;;18.30;99.90;;;;;;5050488;28;20033;-77
2022/07/22 02:35:55;;;;;;;6.78;2.72;;;18.30;99.90;;;;;;5050422;28;20567;-77
2022/07/22 02:38:21;;;;;;;8.45;3.03;;;18.40;99.90;;;;;;5032799;28;20162;-77
2022/07/22 02:40:47;;;;;;;7.70;2.60;;;18.30;99.90;;;;;;5049329;28;20103;-77
2022/07/22 02:43:13;;;;;;;8.30;3.35;;;18.30;99.90;;;;;;5032561;28;20102;-77
2022/07/22 02:45:39;;;;;;;10.93;3.35;;;18.40;99.90;;;;;;5050170;28;20025;-76
2022/07/22 02:48:05;;;;;;;8.57;2.60;;;18.30;99.90;;;;;;5033360;28;20052;-77
2022/07/22 02:50:32;;;;;;;8.48;2.90;;;18.20;99.90;;;;;;5032578;28;20029;-77
2022/07/22 02:52:58;;;;;;;4.97;2.15;;;18.20;99.90;;;;;;5050692;28;20044;-77
2022/07/22 02:55:24;;;;;;;10.32;2.95;;;18.20;99.90;;;;;;5049244;28;20025;-76
2022/07/22 02:57:50;;;;;;;9.38;2.63;;;18.20;99.90;;;;;;5050197;28;20187;-76
2022/07/22 03:00:16;;;;;;;7.07;2.30;;;18.10;99.90;;;;;;5050803;28;20044;-77
2022/07/22 03:02:42;;;;;;;12.35;2.80;;;18.10;99.90;;;;;;5032416;28;20063;-76
2022/07/22 03:05:09;;;;;;;8.27;2.72;;;18.10;99.90;;;;;;5016156;28;20113;-76
2022/07/22 03:07:34;;;;;;;6.05;2.80;;;18.00;99.90;;;;;;5032927;28;20025;-77
2022/07/22 03:10:01;;;;;;;5.82;2.50;;;18.00;99.90;;;;;;5032888;28;20033;-76
2022/07/22 03:12:27;;;;;;;10.10;2.90;;;18.10;99.90;;;;;;5050438;28;20515;-76
2022/07/22 03:14:53;;;;;;;11.70;3.25;;;18.10;99.90;;;;;;5050255;28;20032;-75
2022/07/22 03:17:18;;;;;;;8.55;3.35;;;18.00;99.90;;;;;;5051464;28;20078;-77
2022/07/22 03:19:44;;;;;;;8.55;2.80;;;18.10;99.90;;;;;;5049141;28;20037;-76
2022/07/22 03:22:10;;;;;;;9.68;3.50;;;18.20;99.90;;;;;;5049191;28;20064;-77
2022/07/22 03:24:35;;;;;;;7.95;3.13;;;18.20;99.90;;;;;;5032585;28;20021;-77
2022/07/22 03:27:01;;;;;;;8.68;4.13;;;18.20;99.90;;;;;;5033449;28;20481;-76
2022/07/22 03:29:27;;;;;;;10.63;3.30;;;18.10;99.90;;;;;;5032615;28;20032;-77
2022/07/22 03:31:52;;;;;;;10.18;3.47;;;18.10;99.90;;;;;;5033031;28;20408;-78
2022/07/22 03:34:18;;;;;;;8.77;3.47;;;18.20;99.90;;;;;;5050339;28;20065;-76
2022/07/22 03:36:44;;;;;;;11.18;3.42;;;18.20;99.90;;;;;;5050390;28;20029;-76
2022/07/22 03:39:09;;;;;;;6.45;3.15;;;18.20;99.90;;;;;;5016842;28;20036;-75
2022/07/22 03:41:35;;;;;;;11.70;3.20;;;18.20;99.90;;;;;;5033474;28;20033;-76
2022/07/22 03:44:01;;;;;;;9.88;3.85;;;18.10;99.90;;;;;;5042152;28;20059;-77
2022/07/22 03:46:26;;;;;;;9.57;3.60;;;18.10;99.90;;;;;;5032808;28;20171;-76
2022/07/22 03:48:52;;;;;;;12.98;3.47;;;18.00;99.90;;;;;;5032541;28;20032;-75
2022/07/22 03:51:18;;;;;;;7.63;2.58;;;18.10;99.90;;;;;;5017850;28;20024;-77
2022/07/22 03:53:43;;;;;;;9.25;2.85;;;18.10;99.90;;;;;;5053166;28;20104;-77
2022/07/22 03:56:09;;;;;;;9.02;2.60;;;18.00;99.90;;;;;;5020355;28;20021;-76
2022/07/22 03:58:35;;;;;;;7.82;2.70;;;18.10;99.90;;;;;;5019346;28;20020;-76
2022/07/22 04:01:01;;;;;;;5.55;2.53;;;18.10;99.90;;;;;;5036314;28;20504;-76
2022/07/22 04:03:26;;;;;;;11.18;2.58;;;18.10;99.90;;;;;;5053389;28;20485;-77
2022/07/22 04:05:52;;;;;;;10.93;2.45;;;18.10;99.90;;;;;;5052642;28;20374;-78
2022/07/22 04:08:18;;;;;;;7.53;2.28;;;18.10;99.90;;;;;;5035862;28;20079;-76
2022/07/22 04:10:44;;;;;;;11.88;2.47;;;18.10;99.90;;;;;;5054039;28;20056;-77
2022/07/22 04:13:10;;;;;;;9.10;2.42;;;18.10;99.90;;;;;;5035522;28;20025;-77
2022/07/22 04:15:36;;;;;;;9.15;2.55;;;18.00;99.90;;;;;;5035512;28;20131;-76
2022/07/22 04:18:02;;;;;;;8.52;2.13;;;18.00;99.90;;;;;;5019365;28;20113;-76
2022/07/22 04:20:28;;;;;;;8.50;2.28;;;18.00;99.90;;;;;;5035853;28;20387;-77
2022/07/22 04:22:53;;;;;;;6.15;2.30;;;18.00;99.90;;;;;;5035547;28;20037;-76
2022/07/22 04:25:19;;;;;;;4.88;2.20;;;17.90;99.90;;;;;;5055703;28;20025;-76
2022/07/22 04:27:45;;;;;;;8.43;3.33;;;17.90;99.90;;;;;;5052596;28;20374;-77
2022/07/22 04:30:11;;;;;;;16.15;3.15;;;17.90;99.90;;;;;;5052761;28;20115;-77
2022/07/22 04:32:37;;;;;;;5.47;2.40;;;17.80;99.90;;;;;;5053530;28;20036;-77
2022/07/22 04:35:04;;;;;;;13.98;2.97;;;17.90;99.90;;;;;;5054053;28;20029;-77
2022/07/22 04:37:30;;;;;;;7.40;2.90;;;17.80;99.90;;;;;;5056027;28;20392;-78
2022/07/22 04:39:56;;;;;;;6.88;2.17;;;17.80;99.90;;;;;;5055120;28;20111;-77
2022/07/22 04:42:21;;;;;;;7.38;2.28;;;17.90;99.90;;;;;;5037198;28;20037;-77
2022/07/22 04:44:47;;;;;;;6.43;2.08;;;17.90;99.90;;;;;;5036070;28;20515;-77
2022/07/22 04:47:13;;;;;;;6.68;2.45;;;17.90;99.90;;;;;;5054551;28;20025;-77
2022/07/22 04:49:38;;;;;;;7.75;2.10;;;17.90;99.90;;;;;;5053641;28;20036;-76
2022/07/22 04:52:04;;;;;;;4.43;1.88;;;17.90;99.90;;;;;;5036831;28;20451;-76
2022/07/22 04:54:30;;;;;;;6.20;2.35;;;17.90;99.90;;;;;;5035705;28;20021;-76
2022/07/22 04:56:56;;;;;;;7.00;2.58;;;17.90;99.90;;;;;;5052494;28;20028;-77
2022/07/22 04:59:21;;;;;;;6.25;2.55;;;17.90;99.90;;;;;;5044569;28;20044;-77
2022/07/22 05:01:47;;;;;;;9.02;3.00;;;17.90;99.90;;;;;;5052704;28;20033;-76
2022/07/22 05:04:13;;;;;;;7.85;3.00;;;17.90;99.90;;;;;;5053014;28;20035;-77
2022/07/22 05:06:38;;;;;;;15.95;3.15;;;17.90;99.90;;;;;;5036134;28;20048;-75
2022/07/22 05:09:04;;;;;;;8.00;2.83;;;18.00;99.90;;;;;;5019820;28;20112;-77
2022/07/22 05:11:30;;;;;;;6.47;2.60;;;18.00;99.90;;;;;;5019978;28;20021;-76
2022/07/22 05:13:57;;;;;;;11.68;3.08;;;18.10;99.90;;;;;;5053696;28;20033;-76
2022/07/22 05:16:23;;;;;;;8.32;3.30;;;18.00;99.90;;;;;;5036735;28;20059;-76
2022/07/22 05:18:48;;;;;;;9.38;3.42;;;17.90;99.90;;;;;;5020257;28;20454;-77
2022/07/22 05:21:14;;;;;;;6.30;2.65;;;17.90;99.90;;;;;;5052997;28;20033;-76
2022/07/22 05:23:40;;;;;;;8.70;3.17;;;17.90;99.90;;;;;;5054501;28;20100;-76
2022/07/22 05:26:06;;;;;;;9.65;3.10;;;17.80;99.90;;;;;;5053389;28;20366;-78
2022/07/22 05:28:31;;;;;;;15.88;4.03;;;17.90;99.90;;;;;;5036082;28;20489;-77
2022/07/22 05:30:57;;;;;;;10.65;3.45;;;17.90;99.90;;;;;;5022258;28;20144;-78
2022/07/22 05:33:22;;;;;;;6.45;2.83;;;17.90;99.90;;;;;;5055124;28;20268;-78
2022/07/22 05:35:48;;;;;;;11.00;3.33;;;17.90;99.90;;;;;;5052268;28;20116;-77
2022/07/22 05:38:14;;;;;;;7.90;2.78;;;17.80;99.90;;;;;;5018565;28;20025;-77
2022/07/22 05:40:40;;;;;;;14.45;3.20;;;17.80;99.90;;;;;;5053077;28;20032;-78
2022/07/22 05:43:06;;;;;;;6.82;2.55;;;17.80;99.90;;;;;;5052846;28;20112;-78
2022/07/22 05:45:31;;;;;;;14.43;3.30;;;17.80;99.90;;;;;;5051030;28;20017;-78
2022/07/22 05:47:57;;;;;;;5.90;2.00;;;17.90;99.90;;;;;;5039602;28;20029;-77
2022/07/22 05:50:23;;;;;;;11.88;3.13;;;17.90;99.90;;;;;;5053752;28;20025;-78
2022/07/22 05:52:48;;;;;;;12.55;2.97;;;18.10;99.90;;;;;;5052926;28;20029;-78
2022/07/22 05:55:14;;;;;;;10.48;3.10;;;18.10;99.90;;;;;;5034637;28;20029;-75
2022/07/22 05:57:39;;;;;;;11.68;3.45;;;18.10;99.90;;;;;;5052186;28;20033;-76
2022/07/22 06:00:06;;;;;;;11.38;2.90;;;18.00;99.90;;;;;;5050347;28;20497;-77
2022/07/22 06:02:35;;;;;;;11.30;3.00;;;18.00;99.90;;;;;;5050689;28;20444;-76
2022/07/22 06:05:00;;;;;;;10.55;3.03;;;18.00;99.90;;;;;;5033629;28;20031;-77
2022/07/22 06:07:28;;;;;;;9.38;2.75;;;18.00;99.90;;;;;;5052966;28;20017;-77
2022/07/22 06:09:53;;;;;;;11.40;2.55;;;18.00;99.90;;;;;;5051569;28;20013;-78
2022/07/22 06:12:19;;;;;;;11.40;3.50;;;18.10;99.90;;;;;;5034103;28;20058;-77
2022/07/22 06:14:46;;;;;;;10.10;2.97;;;18.20;99.90;;;;;;5034570;28;20032;-77
2022/07/22 06:17:12;;;;;;;8.52;2.72;;;18.10;99.90;;;;;;5034541;28;20370;-78
2022/07/22 06:19:39;;;;;;;8.43;2.60;;;18.20;99.90;;;;;;5035021;28;20028;-77
2022/07/22 06:22:04;;;;;;;11.63;3.25;;;18.50;99.90;;;;;;5034412;28;20512;-77
2022/07/22 06:24:31;;;;;;;7.93;3.38;;;18.60;99.90;;;;;;5052294;28;20028;-78
2022/07/22 06:26:56;;;;;;;8.35;3.28;;;18.50;99.90;;;;;;5034133;28;20029;-77
2022/07/22 06:29:22;;;;;;;9.00;3.33;;;18.40;99.90;;;;;;5034043;28;20031;-77
2022/07/22 06:31:48;;;;;;;9.90;3.53;;;18.50;99.90;;;;;;5018089;28;20084;-76
2022/07/22 06:34:14;;;;;;;10.45;3.45;;;18.50;99.90;;;;;;5051345;28;20052;-77
2022/07/22 06:36:40;;;;;;;12.48;3.55;;;18.50;99.90;;;;;;5051093;28;20025;-77
2022/07/22 06:39:05;;;;;;;9.13;3.50;;;18.50;99.90;;;;;;5049897;28;20021;-77
2022/07/22 06:41:31;;;;;;;14.15;4.30;;;18.50;99.90;;;;;;5050334;28;20028;-77
2022/07/22 06:43:57;;;;;;;10.98;3.92;;;18.60;99.90;;;;;;5033537;28;20017;-77
2022/07/22 06:46:23;;;;;;;25.00;4.47;;;18.60;99.90;;;;;;5051222;28;20507;-77
2022/07/22 06:48:48;;;;;;;13.57;3.63;;;18.60;99.90;;;;;;5033842;28;20428;-77
2022/07/22 06:51:15;;;;;;;12.35;3.50;;;18.70;99.90;;;;;;5052026;28;20043;-77
2022/07/22 06:53:41;;;;;;;11.40;4.20;;;18.80;99.90;;;;;;5051646;28;20017;-77
2022/07/22 06:56:07;;;;;;;12.48;3.03;;;18.80;99.90;;;;;;5051194;28;20029;-78
2022/07/22 06:58:33;;;;;;;12.57;3.42;;;18.80;99.90;;;;;;5033257;28;20029;-78
2022/07/22 07:00:58;;;;;;;13.85;3.05;;;18.90;99.90;;;;;;5051056;28;20044;-77
2022/07/22 07:03:25;;;;;;;13.00;3.33;;;18.90;99.90;;;;;;5051270;28;20025;-77
2022/07/22 07:05:52;;;;;;;14.88;3.85;;;18.90;99.90;;;;;;5050700;28;20024;-77
2022/07/22 07:08:18;;;;;;;11.63;3.15;;;18.70;99.90;;;;;;5047968;28;20041;-77
2022/07/22 07:10:43;;;;;;;11.77;3.28;;;18.70;99.90;;;;;;5032202;28;20020;-77
2022/07/22 07:13:09;;;;;;;13.13;3.78;;;18.80;99.90;;;;;;5015793;28;20398;-77
2022/07/22 07:15:35;;;;;;;9.50;2.95;;;18.80;99.90;;;;;;5032095;28;20041;-74
2022/07/22 07:18:01;;;;;;;11.88;3.13;;;18.80;99.90;;;;;;5017096;28;20052;-77
2022/07/22 07:20:27;;;;;;;13.35;3.75;;;18.70;99.90;;;;;;5032396;28;20150;-77
2022/07/22 07:22:53;;;;;;;11.32;3.33;;;18.80;99.90;;;;;;5032523;28;20484;-77
2022/07/22 07:25:19;;;;;;;15.05;3.03;;;18.90;99.90;;;;;;5032450;28;20063;-76
2022/07/22 07:27:45;;;;;;;13.38;3.15;;;18.80;99.90;;;;;;5033190;28;20025;-77
2022/07/22 07:30:11;;;;;;;12.18;2.78;;;18.90;99.90;;;;;;5053915;28;20021;-77
2022/07/22 07:32:38;;;;;;;11.40;2.65;;;18.90;99.90;;;;;;5054894;28;20056;-77
2022/07/22 07:35:06;;;;;;;17.98;3.45;;;19.00;99.90;;;;;;5036356;28;20505;-78
2022/07/22 07:37:32;;;;;;;10.82;2.53;;;18.90;99.90;;;;;;5054431;28;20078;-77
2022/07/22 07:39:59;;;;;;;10.80;2.55;;;19.00;99.90;;;;;;5055872;28;20501;-77
2022/07/22 07:42:25;;;;;;;14.95;3.20;;;19.00;99.90;;;;;;5024270;28;20377;-77
2022/07/22 07:44:51;;;;;;;14.65;3.55;;;19.00;99.90;;;;;;5038677;28;20017;-77
2022/07/22 07:47:20;;;;;;;12.13;2.75;;;19.00;99.90;;;;;;5036552;28;20021;-77
2022/07/22 07:49:48;;;;;;;12.00;3.10;;;19.10;99.90;;;;;;5035698;28;20499;-77
2022/07/22 07:52:14;;;;;;;10.63;3.10;;;19.30;99.90;;;;;;5053243;28;20055;-77
2022/07/22 07:54:40;;;;;;;9.25;2.85;;;19.30;99.90;;;;;;5035832;28;20032;-78
2022/07/22 07:57:08;;;;;;;12.05;3.28;;;19.40;99.90;;;;;;5053725;28;20033;-77
2022/07/22 07:59:34;;;;;;;10.60;2.75;;;19.50;99.90;;;;;;5054198;28;20496;-77
2022/07/22 08:02:00;;;;;;;10.70;2.80;;;19.50;99.90;;;;;;5053560;28;20040;-77
2022/07/22 08:04:26;;;;;;;12.52;2.85;;;19.30;99.90;;;;;;5017735;28;20032;-78
2022/07/22 08:06:52;;;;;;;12.93;2.63;;;19.30;99.90;;;;;;5053825;28;20112;-77
2022/07/22 08:09:17;;;;;;;10.90;3.13;;;19.30;99.90;;;;;;5052535;28;20527;-77
2022/07/22 08:11:43;;;;;;;12.63;3.08;;;19.30;99.90;;;;;;5052601;28;20077;-77
2022/07/22 08:14:09;;;;;;;9.45;2.88;;;19.30;99.90;;;;;;5057611;28;20025;-77
2022/07/22 08:16:34;;;;;;;15.73;3.38;;;19.20;99.90;;;;;;5054415;28;20265;-77
2022/07/22 08:19:00;;;;;;;8.32;2.38;;;19.20;99.90;;;;;;5036355;28;20078;-76
2022/07/22 08:21:26;;;;;;;10.65;2.53;;;19.20;99.90;;;;;;5036987;28;20025;-77
2022/07/22 08:23:52;;;;;;;10.45;2.75;;;19.30;99.90;;;;;;5036095;28;20017;-77
2022/07/22 08:26:18;;;;;;;10.80;2.70;;;19.50;99.90;;;;;;5055020;28;20025;-77
2022/07/22 08:28:45;;;;;;;8.57;2.60;;;19.50;99.90;;;;;;5054588;28;20028;-76
2022/07/22 08:31:11;;;;;;;14.02;3.05;;;19.50;99.90;;;;;;5052392;28;20021;-76
2022/07/22 08:33:37;;;;;;;11.57;2.88;;;19.50;99.90;;;;;;5035893;28;20159;-76
2022/07/22 08:36:04;;;;;;;9.60;2.75;;;19.50;99.90;;;;;;5035836;28;20503;-76
2022/07/22 08:38:30;;;;;;;5.72;2.10;;;19.40;99.90;;;;;;5054177;28;20081;-78
2022/07/22 08:40:56;;;;;;;9.68;2.38;;;19.40;99.90;;;;;;5035414;28;20021;-78
2022/07/22 08:43:24;;;;;;;10.30;2.47;;;19.50;99.90;;;;;;5053172;28;20116;-78
2022/07/22 08:45:50;;;;;;;7.38;1.95;;;19.60;99.90;;;;;;5052320;28;20037;-77
2022/07/22 08:48:16;;;;;;;8.95;2.20;;;19.70;99.90;;;;;;5052740;28;20087;-77
2022/07/22 08:50:42;;;;;;;12.75;3.83;;;19.70;99.90;;;;;;5051375;28;20104;-77
2022/07/22 08:53:13;;;;;;;8.93;2.30;;;19.60;99.90;;;;;;5052689;28;20052;-78
2022/07/22 08:55:46;;;;;;;10.50;2.17;;;19.70;99.90;;;;;;5052612;28;20025;-77
2022/07/22 08:58:12;;;;;;;13.13;2.35;;;19.80;99.90;;;;;;5051280;28;20660;-77
2022/07/22 09:00:39;;;;;;;11.52;2.42;;;19.70;99.90;;;;;;5052571;28;20036;-77
2022/07/22 09:03:18;;;;;;;7.30;1.98;;;19.70;99.90;;;;;;5052555;28;20075;-76
2022/07/22 09:05:44;;;;;;;12.02;2.13;;;19.70;99.90;;;;;;5052339;28;20028;-76
2022/07/22 09:08:10;;;;;;;8.88;2.20;;;19.80;99.90;;;;;;5052858;28;20025;-76
2022/07/22 09:10:36;;;;;;;8.73;2.15;;;19.70;99.90;;;;;;5052576;28;20024;-77
2022/07/22 09:13:04;;;;;;;8.73;1.80;;;19.80;99.90;;;;;;5053159;28;20508;-78
2022/07/22 09:15:32;;;;;;;6.18;1.55;;;19.90;99.90;;;;;;5034553;28;20051;-77
2022/07/22 09:17:59;;;;;;;5.38;1.88;;;20.00;99.90;;;;;;5053236;28;20032;-77
2022/07/22 09:20:26;;;;;;;8.77;2.15;;;20.10;99.90;;;;;;5053054;28;20078;-77
2022/07/22 09:22:54;;;;;;;6.40;2.53;;;20.20;99.90;;;;;;5052505;28;20067;-77
2022/07/22 09:25:30;;;;;;;11.13;2.30;;;20.30;99.90;;;;;;5051174;28;20035;-77
2022/07/22 09:28:05;;;;;;;8.88;2.15;;;20.10;99.90;;;;;;5052835;28;20029;-77
2022/07/22 09:30:32;;;;;;;7.18;1.77;;;20.00;99.90;;;;;;5050724;28;20029;-76
2022/07/22 09:32:58;;;;;;;9.05;2.20;;;19.80;99.90;;;;;;5018397;28;20124;-76
2022/07/22 09:35:27;;;;;;;12.15;2.58;;;19.70;99.90;;;;;;5051737;28;20033;-77
2022/07/22 09:37:57;;;;;;;9.35;2.83;;;19.60;99.90;;;;;;5034818;28;20108;-77
2022/07/22 09:40:35;;;;;;;9.85;2.15;;;19.60;99.90;;;;;;5053367;28;20111;-76
2022/07/22 09:43:06;;;;;;;6.15;1.55;;;19.50;99.90;;;;;;5033522;28;20033;-75
2022/07/22 09:45:33;;;;;;;;;;;19.50;99.90;;;;;;5018266;28;20071;-76
2022/07/22 09:48:00;;;;;;;9.07;2.17;;;19.50;99.90;;;;;;5053239;28;20482;-77
2022/07/22 09:50:29;;;;;;;9.18;2.17;;;19.60;99.90;;;;;;5054170;28;20435;-76
2022/07/22 09:52:56;;;;;;;8.80;1.95;;;19.80;99.90;;;;;;5054216;28;20048;-77
2022/07/22 09:55:25;;;;;;;12.73;2.10;;;19.90;99.90;;;;;;5051509;28;20075;-77
2022/07/22 09:57:52;;;;;;;4.22;1.60;;;20.10;99.90;;;;;;5034362;28;20117;-76
2022/07/22 10:00:20;;;;;;;7.38;1.70;;;20.30;99.90;;;;;;5032289;28;20033;-77
2022/07/22 10:02:49;;;;;;;8.73;1.73;;;20.50;99.90;;;;;;5032076;28;20124;-77
2022/07/22 10:05:20;;;;;;;9.70;1.73;;;20.50;99.90;;;;;;5033485;28;20079;-78
2022/07/22 10:07:46;;;;;;;;;;;20.60;99.90;;;;;;5050478;28;20385;-78
2022/07/22 10:10:15;;;;;;;8.00;2.42;;;20.50;99.90;;;;;;5034432;28;20410;-77
2022/07/22 10:12:42;;;;;;;5.97;1.60;;;20.40;99.90;;;;;;5033892;28;20032;-78
2022/07/22 10:15:10;;;;;;;8.80;1.60;;;20.30;99.70;;;;;;5033858;28;20298;-77
2022/07/22 10:17:38;;;;;;;9.88;1.67;;;20.30;99.60;;;;;;5052103;28;20025;-77
2022/07/22 10:20:06;;;;;;;4.60;1.90;;;20.20;99.50;;;;;;5033813;28;20029;-76
2022/07/22 10:22:45;;;;;;;4.05;1.90;;;20.10;99.90;;;;;;5017091;28;20040;-77
2022/07/22 10:25:13;;;;;;;4.78;1.60;;;20.00;99.80;;;;;;5031916;28;20028;-77
2022/07/22 10:27:47;;;;;;;5.20;1.70;;;19.90;99.90;;;;;;5033208;28;20024;-77
2022/07/22 10:30:15;;;;;;;7.50;2.10;;;19.80;99.90;;;;;;5049244;28;20393;-77
2022/07/22 10:32:41;;;;;;;5.38;1.40;;;19.70;99.90;;;;;;5016938;28;20166;-77
2022/07/22 10:35:19;;;;;;;8.15;1.50;;;19.70;99.90;;;;;;5032517;28;20032;-77
2022/07/22 10:37:48;;;;;;;11.60;2.03;;;19.60;99.90;;;;;;5033304;28;20082;-77
2022/07/22 10:40:19;;;;;;;9.57;2.67;;;19.60;99.90;;;;;;5049681;28;20031;-77
2022/07/22 10:43:00;;;;;;;5.97;1.70;;;19.60;99.90;;;;;;5049911;28;20021;-77
2022/07/22 10:45:59;;;;;;;9.13;2.28;;;19.70;99.90;;;;;;5032484;28;20032;-79
2022/07/22 10:48:45;;;;;;;9.45;1.73;;;19.90;99.90;;;;;;5032210;28;20424;-77
2022/07/22 10:51:18;;;;;;;7.13;2.05;;;19.90;99.90;;;;;;5016324;28;20028;-77
2022/07/22 10:53:59;;;;;;;7.38;1.80;;;19.90;99.90;;;;;;5032279;28;20123;-77
2022/07/22 10:56:27;;;;;;;10.32;2.83;;;20.00;99.90;;;;;;5030873;28;20021;-77
2022/07/22 10:59:12;;;;;;;6.40;2.00;;;19.90;99.90;;;;;;5046963;28;20112;-77
2022/07/22 11:01:43;;;;;;;15.85;2.13;;;19.80;99.90;;;;;;5032528;28;20048;-77
2022/07/22 11:04:16;;;;;;;8.82;1.80;;;19.70;99.90;;;;;;5031109;28;20044;-77
2022/07/22 11:06:43;;;;;;;6.88;1.38;;;19.70;99.90;;;;;;5050852;28;20021;-76
2022/07/22 11:09:11;;;;;;;3.55;1.42;;;19.80;99.90;;;;;;5032832;28;20572;-77
2022/07/22 11:11:43;;;;;;;21.55;10.85;;;19.90;99.90;;;;;;5032850;28;20395;-77
2022/07/22 11:14:26;;;;;;;236.75;106.80;;;20.30;99.90;;;;;;5032626;28;20029;-77
2022/07/22 11:17:14;;;;;;;208.57;86.15;;;20.70;99.90;;;;;;5032608;28;20108;-77
2022/07/22 11:19:40;;;;;;;165.60;57.55;;;20.70;99.90;;;;;;5052039;28;20036;-77
2022/07/22 11:22:08;;;;;;;532.67;225.35;;;20.60;99.90;;;;;;5052237;28;20028;-77
2022/07/22 11:24:34;;;;;;;305.73;127.80;;;20.60;99.90;;;;;;5035110;28;20473;-77
2022/07/22 11:27:02;;;;;;;200.23;96.60;;;20.70;99.90;;;;;;5016163;28;20111;-76
2022/07/22 11:29:33;;;;;;;73.85;32.33;;;20.80;99.90;;;;;;5016075;28;20037;-77
2022/07/22 11:32:01;;;;;;;56.35;26.08;;;20.90;99.90;;;;;;5032245;28;20056;-76
2022/07/22 11:34:28;;;;;;;17.80;7.00;;;20.90;99.90;;;;;;5031997;28;20064;-77
2022/07/22 11:36:55;;;;;;;11.65;3.78;;;20.80;99.80;;;;;;5015409;28;20033;-76
2022/07/22 11:39:23;;;;;;;10.15;2.85;;;20.70;99.60;;;;;;5049137;28;20037;-77
2022/07/22 11:41:50;;;;;;;9.60;2.30;;;20.70;99.90;;;;;;5015990;28;20106;-77
2022/07/22 11:44:27;;;;;;;8.80;1.75;;;20.50;99.90;;;;;;5031983;28;20112;-76
2022/07/22 11:46:58;;;;;;;9.75;2.13;;;20.60;99.80;;;;;;5031992;28;20033;-77
2022/07/22 11:49:24;;;;;;;4.60;1.50;;;20.70;99.90;;;;;;5032553;28;20025;-77
2022/07/22 11:51:51;;;;;;;6.35;1.92;;;20.90;99.50;;;;;;5050463;28;20029;-77
2022/07/22 11:54:17;;;;;;;7.55;2.00;;;20.90;98.80;;;;;;5031866;28;20029;-77
2022/07/22 11:56:43;;;;;;;8.65;1.98;;;21.00;98.60;;;;;;5015773;28;20148;-77
2022/07/22 11:59:14;;;;;;;8.35;2.35;;;20.80;98.10;;;;;;5033612;28;20029;-77
2022/07/22 12:01:40;;;;;;;5.83;1.60;;;20.70;98.30;;;;;;5015603;28;20619;-77
2022/07/22 12:04:08;;;;;;;4.55;1.20;;;20.50;98.60;;;;;;5050118;28;20663;-76
2022/07/22 12:06:38;;;;;;;6.13;1.35;;;20.40;98.70;;;;;;5048595;28;20109;-77
2022/07/22 12:09:16;;;;;;;5.20;1.50;;;20.00;99.10;;;;;;5050691;28;20021;-76
2022/07/22 12:11:44;;;;;;;718.33;537.67;;;20.00;99.00;;;;;;5031536;28;20040;-76
2022/07/22 12:14:11;;;;;;;88.97;60.20;;;19.90;99.70;;;;;;5030777;28;20029;-76
2022/07/22 12:16:38;;;;;;;18.40;11.57;;;19.80;99.50;;;;;;5034502;28;20123;-76
2022/07/22 12:19:10;;;;;;;5.95;2.00;;;19.80;99.70;;;;;;5034460;28;20039;-76
2022/07/22 12:21:51;;;;;;;4.60;1.48;;;20.00;99.60;;;;;;5052165;28;20044;-76
2022/07/22 12:24:32;;;;;;;5.50;1.63;;;20.00;99.80;;;;;;5052284;28;20021;-76
2022/07/22 12:27:09;;;;;;;6.63;1.55;;;20.20;99.90;;;;;;5019480;28;20412;-77
2022/07/22 12:29:35;;;;;;;5.10;1.67;;;20.40;99.20;;;;;;5036046;28;20096;-76
2022/07/22 12:32:06;;;;;;;7.15;1.70;;;20.30;99.10;;;;;;5035490;28;20112;-76
2022/07/22 12:34:44;;;;;;;6.60;1.50;;;20.20;99.10;;;;;;5035016;28;20033;-78
2022/07/22 12:37:14;;;;;;;4.80;1.23;;;20.10;98.80;;;;;;5034977;28;20024;-78
2022/07/22 12:39:52;;;;;;;4.55;1.50;;;20.10;98.80;;;;;;5036227;28;20160;-75
2022/07/22 12:42:18;;;;;;;5.00;1.73;;;20.40;98.40;;;;;;5052460;28;20037;-77
2022/07/22 12:44:59;;;;;;;6.28;1.77;;;20.60;97.90;;;;;;5036285;28;20018;-76